sensor_id;sensor_type;location;lat;lon;timestamp;P1;durP1;ratioP1;P2;durP2;ratioP2
68987;SDS011;56038;46.080;11.116;2023-03-21T00:01:09;33.70;;;23.60;;
68987;SDS011;56038;46.080;11.116;2023-03-21T00:11:15;32.97;;;22.98;;
68987;SDS011;56038;46.080;11.116;2023-03-21T00:16:18;38.05;;;24.55;;
68987;SDS011;56038;46.080;11.116;2023-03-21T00:21:21;31.55;;;21.85;;
68987;SDS011;56038;46.080;11.116;2023-03-21T00:26:27;36.92;;;23.27;;
68987;SDS011;56038;46.080;11.116;2023-03-21T00:31:30;34.65;;;23.20;;
68987;SDS011;56038;46.080;11.116;2023-03-21T00:36:32;35.20;;;22.80;;
68987;SDS011;56038;46.080;11.116;2023-03-21T00:41:34;35.22;;;23.70;;
68987;SDS011;56038;46.080;11.116;2023-03-21T00:46:36;34.42;;;22.52;;
68987;SDS011;56038;46.080;11.116;2023-03-21T00:51:38;33.85;;;22.75;;
68987;SDS011;56038;46.080;11.116;2023-03-21T00:56:40;34.17;;;22.48;;
68987;SDS011;56038;46.080;11.116;2023-03-21T01:01:43;32.08;;;21.73;;
68987;SDS011;56038;46.080;11.116;2023-03-21T01:06:46;29.77;;;19.83;;
68987;SDS011;56038;46.080;11.116;2023-03-21T01:11:48;34.92;;;23.38;;
68987;SDS011;56038;46.080;11.116;2023-03-21T01:16:52;32.17;;;21.38;;
68987;SDS011;56038;46.080;11.116;2023-03-21T01:21:57;36.85;;;24.25;;
68987;SDS011;56038;46.080;11.116;2023-03-21T01:27:00;33.67;;;23.10;;
68987;SDS011;56038;46.080;11.116;2023-03-21T01:32:04;32.53;;;22.45;;
68987;SDS011;56038;46.080;11.116;2023-03-21T01:37:06;30.50;;;19.30;;
68987;SDS011;56038;46.080;11.116;2023-03-21T01:42:09;34.67;;;23.92;;
68987;SDS011;56038;46.080;11.116;2023-03-21T01:47:15;31.20;;;20.27;;
68987;SDS011;56038;46.080;11.116;2023-03-21T01:52:17;31.83;;;20.50;;
68987;SDS011;56038;46.080;11.116;2023-03-21T01:57:23;33.03;;;20.83;;
68987;SDS011;56038;46.080;11.116;2023-03-21T02:02:32;35.20;;;24.05;;
68987;SDS011;56038;46.080;11.116;2023-03-21T02:07:36;35.37;;;23.70;;
68987;SDS011;56038;46.080;11.116;2023-03-21T02:12:41;34.63;;;23.50;;
68987;SDS011;56038;46.080;11.116;2023-03-21T02:17:46;33.70;;;22.88;;
68987;SDS011;56038;46.080;11.116;2023-03-21T02:28:41;30.20;;;20.25;;
68987;SDS011;56038;46.080;11.116;2023-03-21T02:39:34;32.13;;;21.77;;
68987;SDS011;56038;46.080;11.116;2023-03-21T02:44:45;32.03;;;22.38;;
68987;SDS011;56038;46.080;11.116;2023-03-21T02:49:53;32.78;;;22.13;;
68987;SDS011;56038;46.080;11.116;2023-03-21T02:54:59;28.35;;;18.83;;
68987;SDS011;56038;46.080;11.116;2023-03-21T03:00:04;27.95;;;18.67;;
68987;SDS011;56038;46.080;11.116;2023-03-21T03:05:13;34.13;;;21.17;;
68987;SDS011;56038;46.080;11.116;2023-03-21T03:10:22;32.65;;;21.55;;
68987;SDS011;56038;46.080;11.116;2023-03-21T03:15:34;35.50;;;21.90;;
68987;SDS011;56038;46.080;11.116;2023-03-21T03:20:46;34.92;;;21.58;;
68987;SDS011;56038;46.080;11.116;2023-03-21T03:25:59;30.27;;;19.70;;
68987;SDS011;56038;46.080;11.116;2023-03-21T03:31:05;30.83;;;18.98;;
68987;SDS011;56038;46.080;11.116;2023-03-21T03:36:11;28.73;;;19.40;;
68987;SDS011;56038;46.080;11.116;2023-03-21T03:46:23;30.27;;;19.30;;
68987;SDS011;56038;46.080;11.116;2023-03-21T03:51:30;30.75;;;20.80;;
68987;SDS011;56038;46.080;11.116;2023-03-21T03:56:37;30.27;;;19.15;;
68987;SDS011;56038;46.080;11.116;2023-03-21T04:01:40;28.60;;;19.50;;
68987;SDS011;56038;46.080;11.116;2023-03-21T04:06:41;30.95;;;21.88;;
68987;SDS011;56038;46.080;11.116;2023-03-21T04:11:46;28.17;;;19.33;;
68987;SDS011;56038;46.080;11.116;2023-03-21T04:16:47;30.13;;;19.92;;
68987;SDS011;56038;46.080;11.116;2023-03-21T04:21:49;29.30;;;19.25;;
68987;SDS011;56038;46.080;11.116;2023-03-21T04:26:53;27.83;;;19.23;;
68987;SDS011;56038;46.080;11.116;2023-03-21T04:31:55;26.55;;;17.42;;
68987;SDS011;56038;46.080;11.116;2023-03-21T04:36:57;29.15;;;18.98;;
68987;SDS011;56038;46.080;11.116;2023-03-21T04:42:00;24.52;;;17.15;;
68987;SDS011;56038;46.080;11.116;2023-03-21T04:47:02;27.45;;;18.42;;
68987;SDS011;56038;46.080;11.116;2023-03-21T04:52:04;27.85;;;18.35;;
68987;SDS011;56038;46.080;11.116;2023-03-21T04:57:07;29.60;;;18.25;;
68987;SDS011;56038;46.080;11.116;2023-03-21T05:02:09;29.67;;;20.73;;
68987;SDS011;56038;46.080;11.116;2023-03-21T05:07:11;36.85;;;22.20;;
68987;SDS011;56038;46.080;11.116;2023-03-21T05:12:14;26.27;;;18.08;;
68987;SDS011;56038;46.080;11.116;2023-03-21T05:17:18;29.50;;;19.30;;
68987;SDS011;56038;46.080;11.116;2023-03-21T05:22:22;32.58;;;19.90;;
68987;SDS011;56038;46.080;11.116;2023-03-21T05:27:27;23.55;;;16.52;;
68987;SDS011;56038;46.080;11.116;2023-03-21T05:32:34;29.15;;;20.83;;
68987;SDS011;56038;46.080;11.116;2023-03-21T05:37:36;28.75;;;18.95;;
68987;SDS011;56038;46.080;11.116;2023-03-21T05:42:40;29.05;;;18.25;;
68987;SDS011;56038;46.080;11.116;2023-03-21T05:47:42;32.53;;;21.17;;
68987;SDS011;56038;46.080;11.116;2023-03-21T05:52:44;28.63;;;18.63;;
68987;SDS011;56038;46.080;11.116;2023-03-21T05:57:47;26.70;;;18.73;;
68987;SDS011;56038;46.080;11.116;2023-03-21T06:02:49;25.92;;;19.17;;
68987;SDS011;56038;46.080;11.116;2023-03-21T06:07:50;31.42;;;20.42;;
68987;SDS011;56038;46.080;11.116;2023-03-21T06:12:53;31.92;;;20.40;;
68987;SDS011;56038;46.080;11.116;2023-03-21T06:17:55;26.45;;;17.48;;
68987;SDS011;56038;46.080;11.116;2023-03-21T06:22:57;26.77;;;17.45;;
68987;SDS011;56038;46.080;11.116;2023-03-21T06:28:00;26.58;;;18.02;;
68987;SDS011;56038;46.080;11.116;2023-03-21T06:33:02;27.48;;;19.20;;
68987;SDS011;56038;46.080;11.116;2023-03-21T06:38:04;33.58;;;20.60;;
68987;SDS011;56038;46.080;11.116;2023-03-21T06:43:07;24.17;;;17.33;;
68987;SDS011;56038;46.080;11.116;2023-03-21T06:48:09;24.55;;;16.90;;
68987;SDS011;56038;46.080;11.116;2023-03-21T06:53:11;22.88;;;15.25;;
68987;SDS011;56038;46.080;11.116;2023-03-21T06:58:14;24.48;;;16.15;;
68987;SDS011;56038;46.080;11.116;2023-03-21T07:03:16;25.85;;;17.77;;
68987;SDS011;56038;46.080;11.116;2023-03-21T07:08:18;24.13;;;15.43;;
68987;SDS011;56038;46.080;11.116;2023-03-21T07:13:21;21.65;;;15.05;;
68987;SDS011;56038;46.080;11.116;2023-03-21T07:18:23;22.60;;;16.25;;
68987;SDS011;56038;46.080;11.116;2023-03-21T07:23:26;22.80;;;16.27;;
68987;SDS011;56038;46.080;11.116;2023-03-21T07:28:29;19.17;;;15.52;;
68987;SDS011;56038;46.080;11.116;2023-03-21T07:33:31;19.38;;;14.00;;
68987;SDS011;56038;46.080;11.116;2023-03-21T07:38:33;23.30;;;14.68;;
68987;SDS011;56038;46.080;11.116;2023-03-21T07:43:36;19.58;;;14.73;;
68987;SDS011;56038;46.080;11.116;2023-03-21T07:48:38;17.38;;;13.02;;
68987;SDS011;56038;46.080;11.116;2023-03-21T07:53:40;19.10;;;13.20;;
68987;SDS011;56038;46.080;11.116;2023-03-21T07:58:44;20.88;;;14.25;;
68987;SDS011;56038;46.080;11.116;2023-03-21T08:03:46;17.88;;;14.20;;
68987;SDS011;56038;46.080;11.116;2023-03-21T08:08:48;21.05;;;14.73;;
68987;SDS011;56038;46.080;11.116;2023-03-21T08:13:52;21.30;;;14.93;;
68987;SDS011;56038;46.080;11.116;2023-03-21T08:18:55;19.20;;;14.93;;
68987;SDS011;56038;46.080;11.116;2023-03-21T08:23:57;23.77;;;17.80;;
68987;SDS011;56038;46.080;11.116;2023-03-21T08:29:00;19.15;;;15.45;;
68987;SDS011;56038;46.080;11.116;2023-03-21T08:34:02;19.50;;;13.98;;
68987;SDS011;56038;46.080;11.116;2023-03-21T08:39:03;22.35;;;14.70;;
68987;SDS011;56038;46.080;11.116;2023-03-21T08:44:08;18.70;;;13.90;;
68987;SDS011;56038;46.080;11.116;2023-03-21T08:49:10;18.17;;;13.93;;
68987;SDS011;56038;46.080;11.116;2023-03-21T08:54:17;16.00;;;11.93;;
68987;SDS011;56038;46.080;11.116;2023-03-21T08:59:21;17.92;;;13.07;;
68987;SDS011;56038;46.080;11.116;2023-03-21T09:04:23;18.58;;;13.13;;
68987;SDS011;56038;46.080;11.116;2023-03-21T09:09:26;21.00;;;13.73;;
68987;SDS011;56038;46.080;11.116;2023-03-21T09:14:29;15.50;;;12.73;;
68987;SDS011;56038;46.080;11.116;2023-03-21T09:19:32;15.45;;;11.70;;
68987;SDS011;56038;46.080;11.116;2023-03-21T09:24:33;18.13;;;12.90;;
68987;SDS011;56038;46.080;11.116;2023-03-21T09:29:37;19.15;;;12.90;;
68987;SDS011;56038;46.080;11.116;2023-03-21T09:34:38;13.23;;;11.13;;
68987;SDS011;56038;46.080;11.116;2023-03-21T09:39:41;15.40;;;12.10;;
68987;SDS011;56038;46.080;11.116;2023-03-21T09:44:50;17.70;;;14.60;;
68987;SDS011;56038;46.080;11.116;2023-03-21T09:50:01;12.30;;;10.85;;
68987;SDS011;56038;46.080;11.116;2023-03-21T09:55:09;15.77;;;12.40;;
68987;SDS011;56038;46.080;11.116;2023-03-21T10:00:21;13.35;;;10.85;;
68987;SDS011;56038;46.080;11.116;2023-03-21T10:05:31;23.00;;;17.80;;
68987;SDS011;56038;46.080;11.116;2023-03-21T10:10:38;18.95;;;14.02;;
68987;SDS011;56038;46.080;11.116;2023-03-21T10:15:46;14.65;;;11.07;;
68987;SDS011;56038;46.080;11.116;2023-03-21T10:20:49;13.18;;;9.88;;
68987;SDS011;56038;46.080;11.116;2023-03-21T10:25:53;11.77;;;9.85;;
68987;SDS011;56038;46.080;11.116;2023-03-21T10:31:00;15.13;;;11.75;;
68987;SDS011;56038;46.080;11.116;2023-03-21T10:36:04;16.27;;;11.30;;
68987;SDS011;56038;46.080;11.116;2023-03-21T10:41:10;11.05;;;9.45;;
68987;SDS011;56038;46.080;11.116;2023-03-21T10:46:15;12.30;;;9.20;;
68987;SDS011;56038;46.080;11.116;2023-03-21T10:51:20;12.88;;;10.38;;
68987;SDS011;56038;46.080;11.116;2023-03-21T10:56:26;10.20;;;9.13;;
68987;SDS011;56038;46.080;11.116;2023-03-21T11:01:33;13.32;;;10.18;;
68987;SDS011;56038;46.080;11.116;2023-03-21T11:06:36;10.95;;;9.10;;
68987;SDS011;56038;46.080;11.116;2023-03-21T11:11:47;11.35;;;10.15;;
68987;SDS011;56038;46.080;11.116;2023-03-21T11:16:53;13.65;;;10.55;;
68987;SDS011;56038;46.080;11.116;2023-03-21T11:21:55;11.10;;;9.38;;
68987;SDS011;56038;46.080;11.116;2023-03-21T11:26:57;11.77;;;8.95;;
68987;SDS011;56038;46.080;11.116;2023-03-21T11:32:08;10.60;;;8.85;;
68987;SDS011;56038;46.080;11.116;2023-03-21T11:37:16;8.32;;;7.53;;
68987;SDS011;56038;46.080;11.116;2023-03-21T11:42:28;13.85;;;10.57;;
68987;SDS011;56038;46.080;11.116;2023-03-21T11:47:32;13.32;;;10.73;;
68987;SDS011;56038;46.080;11.116;2023-03-21T11:52:35;10.23;;;8.93;;
68987;SDS011;56038;46.080;11.116;2023-03-21T11:57:42;11.60;;;10.05;;
68987;SDS011;56038;46.080;11.116;2023-03-21T12:08:24;9.90;;;8.93;;
68987;SDS011;56038;46.080;11.116;2023-03-21T12:13:38;10.30;;;9.10;;
68987;SDS011;56038;46.080;11.116;2023-03-21T12:18:54;11.60;;;7.82;;
68987;SDS011;56038;46.080;11.116;2023-03-21T12:24:05;10.90;;;9.00;;
68987;SDS011;56038;46.080;11.116;2023-03-21T12:29:15;9.93;;;8.90;;
68987;SDS011;56038;46.080;11.116;2023-03-21T12:34:37;9.90;;;7.63;;
68987;SDS011;56038;46.080;11.116;2023-03-21T12:39:54;9.52;;;8.07;;
68987;SDS011;56038;46.080;11.116;2023-03-21T12:45:08;9.15;;;8.18;;
68987;SDS011;56038;46.080;11.116;2023-03-21T12:50:18;8.48;;;7.57;;
68987;SDS011;56038;46.080;11.116;2023-03-21T12:55:23;8.50;;;7.63;;
68987;SDS011;56038;46.080;11.116;2023-03-21T13:00:30;9.70;;;7.55;;
68987;SDS011;56038;46.080;11.116;2023-03-21T13:05:39;9.20;;;8.30;;
68987;SDS011;56038;46.080;11.116;2023-03-21T13:10:45;8.43;;;7.57;;
68987;SDS011;56038;46.080;11.116;2023-03-21T13:15:49;10.75;;;9.52;;
68987;SDS011;56038;46.080;11.116;2023-03-21T13:21:00;9.50;;;8.13;;
68987;SDS011;56038;46.080;11.116;2023-03-21T13:26:11;12.88;;;10.75;;
68987;SDS011;56038;46.080;11.116;2023-03-21T13:31:16;13.48;;;11.60;;
68987;SDS011;56038;46.080;11.116;2023-03-21T13:36:23;12.27;;;10.85;;
68987;SDS011;56038;46.080;11.116;2023-03-21T13:41:29;14.90;;;11.32;;
68987;SDS011;56038;46.080;11.116;2023-03-21T13:46:35;12.15;;;10.85;;
68987;SDS011;56038;46.080;11.116;2023-03-21T13:51:46;16.92;;;12.27;;
68987;SDS011;56038;46.080;11.116;2023-03-21T13:56:52;13.38;;;10.75;;
68987;SDS011;56038;46.080;11.116;2023-03-21T14:01:57;13.18;;;10.95;;
68987;SDS011;56038;46.080;11.116;2023-03-21T14:07:02;12.40;;;10.45;;
68987;SDS011;56038;46.080;11.116;2023-03-21T14:12:08;10.80;;;9.70;;
68987;SDS011;56038;46.080;11.116;2023-03-21T14:17:20;10.88;;;8.95;;
68987;SDS011;56038;46.080;11.116;2023-03-21T14:22:26;12.90;;;9.80;;
68987;SDS011;56038;46.080;11.116;2023-03-21T14:27:30;11.45;;;9.80;;
68987;SDS011;56038;46.080;11.116;2023-03-21T14:37:38;15.02;;;11.35;;
68987;SDS011;56038;46.080;11.116;2023-03-21T14:42:44;13.93;;;9.98;;
68987;SDS011;56038;46.080;11.116;2023-03-21T14:47:54;16.63;;;12.70;;
68987;SDS011;56038;46.080;11.116;2023-03-21T14:52:58;14.10;;;10.50;;
68987;SDS011;56038;46.080;11.116;2023-03-21T14:58:00;12.48;;;10.18;;
68987;SDS011;56038;46.080;11.116;2023-03-21T15:03:02;18.52;;;14.90;;
68987;SDS011;56038;46.080;11.116;2023-03-21T15:08:08;17.40;;;13.30;;
68987;SDS011;56038;46.080;11.116;2023-03-21T15:13:15;15.63;;;12.52;;
68987;SDS011;56038;46.080;11.116;2023-03-21T15:23:27;18.25;;;13.40;;
68987;SDS011;56038;46.080;11.116;2023-03-21T15:28:34;15.15;;;12.70;;
68987;SDS011;56038;46.080;11.116;2023-03-21T15:33:36;17.13;;;13.48;;
68987;SDS011;56038;46.080;11.116;2023-03-21T15:38:40;15.50;;;11.05;;
68987;SDS011;56038;46.080;11.116;2023-03-21T15:43:44;20.10;;;15.50;;
68987;SDS011;56038;46.080;11.116;2023-03-21T15:48:47;14.68;;;12.88;;
68987;SDS011;56038;46.080;11.116;2023-03-21T15:53:51;25.05;;;16.92;;
68987;SDS011;56038;46.080;11.116;2023-03-21T15:58:54;21.55;;;16.65;;
68987;SDS011;56038;46.080;11.116;2023-03-21T16:03:57;20.45;;;16.30;;
68987;SDS011;56038;46.080;11.116;2023-03-21T16:09:09;24.42;;;18.10;;
68987;SDS011;56038;46.080;11.116;2023-03-21T16:14:21;22.20;;;18.10;;
68987;SDS011;56038;46.080;11.116;2023-03-21T16:19:26;24.95;;;18.88;;
68987;SDS011;56038;46.080;11.116;2023-03-21T16:24:30;22.73;;;17.17;;
68987;SDS011;56038;46.080;11.116;2023-03-21T16:29:32;25.88;;;19.40;;
68987;SDS011;56038;46.080;11.116;2023-03-21T16:34:34;23.63;;;19.05;;
68987;SDS011;56038;46.080;11.116;2023-03-21T16:39:37;22.98;;;17.52;;
68987;SDS011;56038;46.080;11.116;2023-03-21T16:44:39;26.92;;;19.08;;
68987;SDS011;56038;46.080;11.116;2023-03-21T16:49:41;25.45;;;18.23;;
68987;SDS011;56038;46.080;11.116;2023-03-21T16:54:45;32.40;;;20.92;;
68987;SDS011;56038;46.080;11.116;2023-03-21T16:59:47;29.77;;;19.95;;
68987;SDS011;56038;46.080;11.116;2023-03-21T17:04:49;26.13;;;18.45;;
68987;SDS011;56038;46.080;11.116;2023-03-21T17:09:52;26.65;;;19.20;;
68987;SDS011;56038;46.080;11.116;2023-03-21T17:14:54;27.35;;;19.55;;
68987;SDS011;56038;46.080;11.116;2023-03-21T17:19:56;18.75;;;13.73;;
68987;SDS011;56038;46.080;11.116;2023-03-21T17:24:59;24.50;;;15.77;;
68987;SDS011;56038;46.080;11.116;2023-03-21T17:30:02;22.17;;;15.88;;
68987;SDS011;56038;46.080;11.116;2023-03-21T17:35:11;25.17;;;18.10;;
68987;SDS011;56038;46.080;11.116;2023-03-21T17:40:15;20.40;;;14.90;;
68987;SDS011;56038;46.080;11.116;2023-03-21T17:45:20;22.13;;;15.15;;
68987;SDS011;56038;46.080;11.116;2023-03-21T17:50:23;22.13;;;15.55;;
68987;SDS011;56038;46.080;11.116;2023-03-21T17:55:28;17.85;;;13.35;;
68987;SDS011;56038;46.080;11.116;2023-03-21T18:00:31;25.98;;;17.80;;
68987;SDS011;56038;46.080;11.116;2023-03-21T18:05:33;23.33;;;14.55;;
68987;SDS011;56038;46.080;11.116;2023-03-21T18:10:36;23.00;;;15.05;;
68987;SDS011;56038;46.080;11.116;2023-03-21T18:15:39;20.45;;;14.18;;
68987;SDS011;56038;46.080;11.116;2023-03-21T18:20:41;24.58;;;16.13;;
68987;SDS011;56038;46.080;11.116;2023-03-21T18:25:46;17.77;;;12.38;;
68987;SDS011;56038;46.080;11.116;2023-03-21T18:30:48;20.17;;;14.15;;
68987;SDS011;56038;46.080;11.116;2023-03-21T18:35:50;18.42;;;12.75;;
68987;SDS011;56038;46.080;11.116;2023-03-21T18:40:53;21.95;;;14.85;;
68987;SDS011;56038;46.080;11.116;2023-03-21T18:45:55;26.42;;;17.23;;
68987;SDS011;56038;46.080;11.116;2023-03-21T18:50:57;21.33;;;14.82;;
68987;SDS011;56038;46.080;11.116;2023-03-21T18:56:01;25.42;;;17.30;;
68987;SDS011;56038;46.080;11.116;2023-03-21T19:01:03;25.25;;;17.95;;
68987;SDS011;56038;46.080;11.116;2023-03-21T19:06:05;20.00;;;13.20;;
68987;SDS011;56038;46.080;11.116;2023-03-21T19:11:09;19.90;;;12.95;;
68987;SDS011;56038;46.080;11.116;2023-03-21T19:16:11;20.33;;;14.82;;
68987;SDS011;56038;46.080;11.116;2023-03-21T19:21:13;23.75;;;15.90;;
68987;SDS011;56038;46.080;11.116;2023-03-21T19:26:17;21.73;;;15.30;;
68987;SDS011;56038;46.080;11.116;2023-03-21T19:31:19;19.45;;;14.77;;
68987;SDS011;56038;46.080;11.116;2023-03-21T19:36:21;20.77;;;13.77;;
68987;SDS011;56038;46.080;11.116;2023-03-21T19:41:24;25.50;;;15.55;;
68987;SDS011;56038;46.080;11.116;2023-03-21T19:46:26;22.98;;;15.43;;
68987;SDS011;56038;46.080;11.116;2023-03-21T19:51:28;19.90;;;14.23;;
68987;SDS011;56038;46.080;11.116;2023-03-21T19:56:32;15.13;;;10.77;;
68987;SDS011;56038;46.080;11.116;2023-03-21T20:01:34;23.13;;;14.05;;
68987;SDS011;56038;46.080;11.116;2023-03-21T20:06:35;20.35;;;14.32;;
68987;SDS011;56038;46.080;11.116;2023-03-21T20:11:39;22.42;;;15.10;;
68987;SDS011;56038;46.080;11.116;2023-03-21T20:16:40;22.80;;;14.48;;
68987;SDS011;56038;46.080;11.116;2023-03-21T20:21:42;22.23;;;14.30;;
68987;SDS011;56038;46.080;11.116;2023-03-21T20:26:45;27.45;;;17.33;;
68987;SDS011;56038;46.080;11.116;2023-03-21T20:31:48;24.38;;;16.83;;
68987;SDS011;56038;46.080;11.116;2023-03-21T20:36:52;25.67;;;14.85;;
68987;SDS011;56038;46.080;11.116;2023-03-21T20:41:55;20.92;;;14.80;;
68987;SDS011;56038;46.080;11.116;2023-03-21T20:46:57;22.05;;;14.82;;
68987;SDS011;56038;46.080;11.116;2023-03-21T20:51:59;25.90;;;17.63;;
68987;SDS011;56038;46.080;11.116;2023-03-21T20:57:04;29.08;;;19.15;;
68987;SDS011;56038;46.080;11.116;2023-03-21T21:02:08;23.95;;;16.63;;
68987;SDS011;56038;46.080;11.116;2023-03-21T21:07:10;21.35;;;14.65;;
68987;SDS011;56038;46.080;11.116;2023-03-21T21:12:16;22.13;;;14.47;;
68987;SDS011;56038;46.080;11.116;2023-03-21T21:17:18;22.30;;;14.43;;
68987;SDS011;56038;46.080;11.116;2023-03-21T21:22:21;18.02;;;12.45;;
68987;SDS011;56038;46.080;11.116;2023-03-21T21:27:25;30.02;;;17.90;;
68987;SDS011;56038;46.080;11.116;2023-03-21T21:32:27;28.20;;;18.38;;
68987;SDS011;56038;46.080;11.116;2023-03-21T21:37:29;20.10;;;13.57;;
68987;SDS011;56038;46.080;11.116;2023-03-21T21:42:34;20.42;;;14.13;;
68987;SDS011;56038;46.080;11.116;2023-03-21T21:47:36;25.15;;;17.15;;
68987;SDS011;56038;46.080;11.116;2023-03-21T21:52:38;19.35;;;14.98;;
68987;SDS011;56038;46.080;11.116;2023-03-21T21:57:43;20.40;;;12.18;;
68987;SDS011;56038;46.080;11.116;2023-03-21T22:02:49;19.70;;;13.57;;
68987;SDS011;56038;46.080;11.116;2023-03-21T22:07:51;20.80;;;14.98;;
68987;SDS011;56038;46.080;11.116;2023-03-21T22:12:56;18.35;;;13.43;;
68987;SDS011;56038;46.080;11.116;2023-03-21T22:17:59;27.15;;;15.23;;
68987;SDS011;56038;46.080;11.116;2023-03-21T22:23:00;20.73;;;14.18;;
68987;SDS011;56038;46.080;11.116;2023-03-21T22:28:04;24.52;;;15.77;;
68987;SDS011;56038;46.080;11.116;2023-03-21T22:33:05;21.85;;;13.85;;
68987;SDS011;56038;46.080;11.116;2023-03-21T22:38:07;19.35;;;14.43;;
68987;SDS011;56038;46.080;11.116;2023-03-21T22:43:10;20.25;;;13.98;;
68987;SDS011;56038;46.080;11.116;2023-03-21T22:48:12;20.60;;;13.52;;
68987;SDS011;56038;46.080;11.116;2023-03-21T22:53:14;22.33;;;15.20;;
68987;SDS011;56038;46.080;11.116;2023-03-21T22:58:17;20.52;;;15.10;;
68987;SDS011;56038;46.080;11.116;2023-03-21T23:03:19;20.13;;;13.68;;
68987;SDS011;56038;46.080;11.116;2023-03-21T23:08:21;19.58;;;15.27;;
68987;SDS011;56038;46.080;11.116;2023-03-21T23:13:24;18.98;;;14.30;;
68987;SDS011;56038;46.080;11.116;2023-03-21T23:18:27;22.40;;;15.48;;
68987;SDS011;56038;46.080;11.116;2023-03-21T23:23:29;23.88;;;16.25;;
68987;SDS011;56038;46.080;11.116;2023-03-21T23:28:32;18.15;;;13.40;;
68987;SDS011;56038;46.080;11.116;2023-03-21T23:33:34;19.65;;;14.07;;
68987;SDS011;56038;46.080;11.116;2023-03-21T23:38:36;20.63;;;15.10;;
68987;SDS011;56038;46.080;11.116;2023-03-21T23:43:40;22.58;;;14.65;;
68987;SDS011;56038;46.080;11.116;2023-03-21T23:48:43;22.73;;;15.60;;
68987;SDS011;56038;46.080;11.116;2023-03-21T23:53:46;20.75;;;14.70;;
68987;SDS011;56038;46.080;11.116;2023-03-21T23:58:49;25.27;;;14.88;;
